createdAt,value
2023-02-08T00:02:36.327Z,102501.25
2023-02-08T00:07:37.753Z,102501.94
2023-02-08T00:12:39.181Z,102503.38
2023-02-08T00:17:40.710Z,102498.22
2023-02-08T00:22:42.182Z,102504.56
2023-02-08T00:27:43.595Z,102495.75
2023-02-08T00:32:44.989Z,102497.88
2023-02-08T00:37:46.399Z,102494.00
2023-02-08T00:42:47.803Z,102492.06
2023-02-08T00:47:49.259Z,102500.09
2023-02-08T00:52:51.255Z,102497.38
2023-02-08T00:57:52.753Z,102497.13
2023-02-08T01:02:54.133Z,102499.38
2023-02-08T01:07:55.517Z,102496.56
2023-02-08T01:12:56.902Z,102488.06
2023-02-08T01:17:58.430Z,102491.16
2023-02-08T01:22:59.826Z,102490.22
2023-02-08T01:28:01.250Z,102489.34
2023-02-08T01:33:02.663Z,102496.84
2023-02-08T01:38:04.060Z,102487.81
2023-02-08T01:43:16.544Z,102492.72
2023-02-08T01:48:28.351Z,102483.41
2023-02-08T01:53:31.643Z,102480.69
2023-02-08T01:58:38.994Z,102475.44
2023-02-08T02:03:40.495Z,102472.72
2023-02-08T02:08:57.698Z,102472.38
2023-02-08T02:14:00.724Z,102466.28
2023-02-08T02:19:02.682Z,102463.63
2023-02-08T02:24:24.320Z,102457.69
2023-02-08T02:29:31.847Z,102467.44
2023-02-08T02:34:42.406Z,102477.25
2023-02-08T02:40:01.662Z,102469.50
2023-02-08T02:45:14.984Z,102472.72
2023-02-08T02:50:34.850Z,102476.66
2023-02-08T02:55:46.448Z,102474.00
2023-02-08T03:00:55.762Z,102460.50
2023-02-08T03:06:20.260Z,102460.34
2023-02-08T03:11:26.748Z,102455.09
2023-02-08T03:16:58.916Z,102452.34
2023-02-08T03:22:17.873Z,102452.19
2023-02-08T03:27:31.207Z,102448.91
2023-02-08T03:32:43.247Z,102460.69
2023-02-08T03:37:50.238Z,102459.16
2023-02-08T03:42:54.058Z,102458.03
2023-02-08T03:48:00.331Z,102460.50
2023-02-08T03:53:02.308Z,102469.63
2023-02-08T03:58:10.438Z,102473.75
2023-02-08T04:03:22.964Z,102470.31
2023-02-08T04:08:25.107Z,102465.25
2023-02-08T04:13:26.518Z,102462.59
2023-02-08T04:18:27.912Z,102459.25
2023-02-08T04:23:29.368Z,102457.44
2023-02-08T04:28:30.784Z,102461.47
2023-02-08T04:33:32.245Z,102462.25
2023-02-08T04:38:33.961Z,102460.47
2023-02-08T04:43:35.676Z,102455.38
2023-02-08T04:48:37.338Z,102446.84
2023-02-08T04:53:38.736Z,102449.25
2023-02-08T04:58:40.422Z,102443.25
2023-02-08T05:03:41.903Z,102434.06
2023-02-08T05:08:43.321Z,102436.28
2023-02-08T05:13:44.747Z,102431.97
2023-02-08T05:18:46.203Z,102425.13
2023-02-08T05:23:47.589Z,102428.28
2023-02-08T05:28:49.033Z,102421.59
2023-02-08T05:33:52.011Z,102419.69
2023-02-08T05:38:53.572Z,102420.31
2023-02-08T05:43:54.989Z,102412.75
2023-02-08T05:48:56.390Z,102422.63
2023-02-08T05:53:57.798Z,102429.03
2023-02-08T05:59:03.431Z,102424.25
2023-02-08T06:04:04.954Z,102433.16
2023-02-08T06:09:06.398Z,102437.22
2023-02-08T06:14:07.810Z,102435.41
2023-02-08T06:19:09.185Z,102439.44
2023-02-08T06:24:11.458Z,102451.22
2023-02-08T06:29:12.859Z,102454.47
2023-02-08T06:34:14.235Z,102455.53
2023-02-08T06:39:15.627Z,102452.94
2023-02-08T06:44:17.054Z,102443.75
2023-02-08T06:49:18.745Z,102458.59
2023-02-08T06:54:20.219Z,102459.47
2023-02-08T06:59:21.759Z,102464.44
2023-02-08T07:04:23.177Z,102467.03
2023-02-08T07:09:24.614Z,102462.31
2023-02-08T07:14:26.019Z,102469.97
2023-02-08T07:19:28.138Z,102465.50
2023-02-08T07:24:29.779Z,102461.25
2023-02-08T07:29:32.832Z,102468.81
2023-02-08T07:34:37.072Z,102459.16
2023-02-08T07:39:38.500Z,102449.97
2023-02-08T07:44:40.078Z,102446.06
2023-02-08T07:49:41.570Z,102442.91
2023-02-08T07:54:42.989Z,102437.25
2023-02-08T07:59:44.365Z,102434.84
2023-02-08T08:04:45.739Z,102431.25
2023-02-08T08:09:47.148Z,102430.81
2023-02-08T08:14:48.514Z,102429.72
2023-02-08T08:19:49.898Z,102433.88
2023-02-08T08:24:51.281Z,102421.16
2023-02-08T08:29:52.708Z,102416.50
2023-02-08T08:34:54.112Z,102416.34
2023-02-08T08:39:55.572Z,102418.25
2023-02-08T08:44:56.997Z,102407.94
2023-02-08T08:49:58.438Z,102403.38
2023-02-08T08:54:59.896Z,102397.94
2023-02-08T09:00:01.344Z,102395.69
2023-02-08T09:05:04.198Z,102396.75
2023-02-08T09:10:06.291Z,102390.84
2023-02-08T09:15:08.174Z,102392.13
2023-02-08T09:20:10.069Z,102393.16
2023-02-08T09:25:11.518Z,102388.44
2023-02-08T09:30:13.349Z,102389.34
2023-02-08T09:35:15.376Z,102386.63
2023-02-08T09:40:31.318Z,102377.53
2023-02-08T09:45:59.588Z,102381.94
2023-02-08T09:51:14.617Z,102361.06
2023-02-08T09:56:21.304Z,102368.59
2023-02-08T10:01:27.210Z,102372.06
2023-02-08T10:06:30.485Z,102379.59
2023-02-08T10:11:44.329Z,102373.19
2023-02-08T10:16:54.833Z,102372.50
2023-02-08T10:22:04.310Z,102366.41
2023-02-08T10:27:08.610Z,102352.06
2023-02-08T10:32:26.528Z,102345.50
2023-02-08T10:37:34.548Z,102334.41
2023-02-08T10:42:37.401Z,102329.38
2023-02-08T10:48:03.243Z,102330.16
2023-02-08T10:53:05.373Z,102326.75
2023-02-08T10:58:07.578Z,102326.56
2023-02-08T11:03:22.566Z,102317.06
2023-02-08T11:08:26.819Z,102301.75
2023-02-08T11:13:36.959Z,102302.28
2023-02-08T11:18:47.163Z,102291.25
2023-02-08T11:23:52.262Z,102294.00
2023-02-08T11:29:06.034Z,102286.19
2023-02-08T11:34:10.648Z,102285.19
2023-02-08T11:39:39.749Z,102282.25
2023-02-08T11:44:45.758Z,102271.72
2023-02-08T11:49:54.501Z,102265.66
2023-02-08T11:55:13.926Z,102272.09
2023-02-08T12:00:23.058Z,102270.94
2023-02-08T12:05:36.537Z,102264.47
2023-02-08T12:10:55.442Z,102256.34
2023-02-08T12:16:36.151Z,102262.34
2023-02-08T12:21:46.880Z,102251.69
2023-02-08T12:26:57.459Z,102247.25
2023-02-08T12:32:03.341Z,102242.41
2023-02-08T12:37:48.858Z,102233.97
2023-02-08T12:43:14.859Z,102225.31
2023-02-08T12:48:33.575Z,102207.66
2023-02-08T12:53:41.380Z,102215.69
2023-02-08T12:58:42.956Z,102218.09
2023-02-08T13:03:51.599Z,102205.38
2023-02-08T13:09:12.790Z,102207.09
2023-02-08T13:14:20.133Z,102202.69
2023-02-08T13:19:58.141Z,102190.44
2023-02-08T13:25:07.921Z,102206.06
2023-02-08T13:30:19.246Z,102182.63
2023-02-08T13:35:30.584Z,102159.03
2023-02-08T13:40:34.942Z,102163.38
2023-02-08T13:45:42.471Z,102166.03
2023-02-08T13:50:46.154Z,102163.56
2023-02-08T13:55:58.606Z,102159.34
2023-02-08T14:01:04.908Z,102158.50
2023-02-08T14:06:17.793Z,102156.72
2023-02-08T14:11:42.496Z,102161.91
2023-02-08T14:16:46.429Z,102158.56
2023-02-08T14:21:59.194Z,102154.22
2023-02-08T14:27:20.349Z,102143.19
2023-02-08T14:32:24.100Z,102139.81
2023-02-08T14:37:32.203Z,102142.16
2023-02-08T14:42:52.661Z,102135.41
2023-02-08T14:47:57.701Z,102138.75
2023-02-08T14:53:16.932Z,102132.78
2023-02-08T14:58:28.452Z,102124.25
2023-02-08T15:03:32.295Z,102131.69
2023-02-08T15:08:33.851Z,102124.75
2023-02-08T15:13:35.393Z,102122.97
2023-02-08T15:18:37.010Z,102116.13
2023-02-08T15:23:38.475Z,102112.63
2023-02-08T15:28:44.503Z,102111.66
2023-02-08T15:33:47.114Z,102100.59
2023-02-08T15:38:49.136Z,102099.59
2023-02-08T15:43:50.627Z,102103.72
2023-02-08T15:48:53.870Z,102110.31
2023-02-08T15:53:56.766Z,102095.91
2023-02-08T15:59:01.228Z,102088.88
2023-02-08T16:04:12.428Z,102081.13
2023-02-08T16:09:20.230Z,102083.47
2023-02-08T16:14:27.866Z,102088.31
2023-02-08T16:19:32.779Z,102093.94
2023-02-08T16:24:34.188Z,102098.53
2023-02-08T16:29:39.763Z,102101.59
2023-02-08T16:34:41.407Z,102105.50
2023-02-08T16:40:08.720Z,102095.97
2023-02-08T16:45:19.862Z,102099.84
2023-02-08T16:50:27.174Z,102106.19
2023-02-08T16:55:31.923Z,102120.19
2023-02-08T17:00:35.526Z,102127.41
2023-02-08T17:05:45.318Z,102137.94
2023-02-08T17:10:51.701Z,102136.88
2023-02-08T17:15:54.002Z,102135.56
2023-02-08T17:20:59.596Z,102141.19
2023-02-08T17:26:01.091Z,102136.88
2023-02-08T17:31:02.654Z,102129.03
2023-02-08T17:36:04.329Z,102134.00
2023-02-08T17:41:17.696Z,102139.59
2023-02-08T17:46:22.566Z,102141.34
2023-02-08T17:51:25.174Z,102139.53
2023-02-08T17:56:28.771Z,102131.66
2023-02-08T18:01:31.317Z,102143.31
2023-02-08T18:06:33.422Z,102140.00
2023-02-08T18:11:34.861Z,102142.50
2023-02-08T18:16:36.330Z,102152.28
2023-02-08T18:21:37.861Z,102147.78
2023-02-08T18:26:39.322Z,102141.56
2023-02-08T18:31:41.028Z,102151.63
2023-02-08T18:36:43.220Z,102161.53
2023-02-08T18:41:44.748Z,102158.69
2023-02-08T18:46:47.800Z,102160.97
2023-02-08T18:51:49.265Z,102161.53
2023-02-08T18:56:53.962Z,102157.91
2023-02-08T19:01:55.465Z,102154.28
2023-02-08T19:06:56.967Z,102162.72
2023-02-08T19:11:58.353Z,102160.72
2023-02-08T19:17:00.618Z,102149.59
2023-02-08T19:22:02.027Z,102156.16
2023-02-08T19:27:03.504Z,102151.56
2023-02-08T19:32:07.603Z,102155.28
2023-02-08T19:37:09.035Z,102156.38
2023-02-08T19:42:10.665Z,102155.91
2023-02-08T19:47:12.167Z,102148.84
2023-02-08T19:52:16.022Z,102140.84
2023-02-08T19:57:17.566Z,102131.94
2023-02-08T20:02:18.957Z,102129.81
2023-02-08T20:07:20.393Z,102129.59
2023-02-08T20:12:22.267Z,102121.09
2023-02-08T20:17:23.915Z,102118.28
2023-02-08T20:22:25.323Z,102118.22
2023-02-08T20:27:32.077Z,102114.94
2023-02-08T20:32:33.494Z,102107.66
2023-02-08T20:37:34.933Z,102113.38
2023-02-08T20:42:36.692Z,102120.00
2023-02-08T20:47:46.379Z,102118.09
2023-02-08T20:52:49.026Z,102116.88
2023-02-08T20:57:50.519Z,102117.69
2023-02-08T21:02:51.965Z,102114.81
2023-02-08T21:07:53.357Z,102113.44
2023-02-08T21:12:54.771Z,102120.75
2023-02-08T21:17:56.276Z,102113.66
2023-02-08T21:22:57.749Z,102116.59
2023-02-08T21:27:59.472Z,102108.94
2023-02-08T21:33:00.953Z,102110.53
2023-02-08T21:38:02.373Z,102099.50
2023-02-08T21:43:03.811Z,102099.00
2023-02-08T21:48:05.467Z,102096.91
2023-02-08T21:53:25.542Z,102090.00
2023-02-08T21:58:27.578Z,102096.41
2023-02-08T22:03:31.253Z,102090.81
2023-02-08T22:08:32.687Z,102076.41
2023-02-08T22:13:34.108Z,102083.06
2023-02-08T22:18:36.592Z,102080.38
2023-02-08T22:23:38.011Z,102076.69
2023-02-08T22:28:39.437Z,102065.88
2023-02-08T22:33:41.914Z,102064.56
2023-02-08T22:38:43.355Z,102063.50
2023-02-08T22:43:45.221Z,102064.53
2023-02-08T22:48:46.640Z,102065.78
2023-02-08T22:53:48.101Z,102066.06
2023-02-08T22:58:49.496Z,102074.38
2023-02-08T23:03:50.879Z,102065.88
2023-02-08T23:08:52.416Z,102072.97
2023-02-08T23:13:55.029Z,102079.22
2023-02-08T23:18:56.505Z,102073.97
2023-02-08T23:23:57.909Z,102070.53
2023-02-08T23:28:59.358Z,102076.28
2023-02-08T23:34:00.842Z,102075.41
2023-02-08T23:39:03.373Z,102074.41
2023-02-08T23:44:04.985Z,102070.97
2023-02-08T23:49:06.394Z,102063.94
2023-02-08T23:54:07.981Z,102051.94
2023-02-08T23:59:10.485Z,102062.34
